sensor_id;sensor_type;location;lat;lon;timestamp;P1;durP1;ratioP1;P2;durP2;ratioP2
31652;SDS011;18261;53.648;9.910;2023-03-01T00:01:36;39.10;;;17.25;;
31652;SDS011;18261;53.648;9.910;2023-03-01T00:04:02;42.28;;;20.25;;
31652;SDS011;18261;53.648;9.910;2023-03-01T00:06:28;45.88;;;19.95;;
31652;SDS011;18261;53.648;9.910;2023-03-01T00:08:54;42.45;;;19.05;;
31652;SDS011;18261;53.648;9.910;2023-03-01T00:11:22;40.47;;;19.13;;
31652;SDS011;18261;53.648;9.910;2023-03-01T00:13:49;45.97;;;21.95;;
31652;SDS011;18261;53.648;9.910;2023-03-01T00:16:16;41.42;;;20.40;;
31652;SDS011;18261;53.648;9.910;2023-03-01T00:18:43;40.70;;;19.08;;
31652;SDS011;18261;53.648;9.910;2023-03-01T00:21:09;41.88;;;18.23;;
31652;SDS011;18261;53.648;9.910;2023-03-01T00:23:36;38.88;;;17.80;;
31652;SDS011;18261;53.648;9.910;2023-03-01T00:26:05;37.67;;;18.50;;
31652;SDS011;18261;53.648;9.910;2023-03-01T00:28:31;44.20;;;18.30;;
31652;SDS011;18261;53.648;9.910;2023-03-01T00:31:02;39.65;;;17.83;;
31652;SDS011;18261;53.648;9.910;2023-03-01T00:33:28;38.67;;;18.48;;
31652;SDS011;18261;53.648;9.910;2023-03-01T00:35:54;41.50;;;18.13;;
31652;SDS011;18261;53.648;9.910;2023-03-01T00:38:20;38.50;;;16.73;;
31652;SDS011;18261;53.648;9.910;2023-03-01T00:40:46;38.30;;;17.35;;
31652;SDS011;18261;53.648;9.910;2023-03-01T00:43:12;36.60;;;16.98;;
31652;SDS011;18261;53.648;9.910;2023-03-01T00:45:38;35.95;;;16.13;;
31652;SDS011;18261;53.648;9.910;2023-03-01T00:48:04;35.70;;;16.35;;
31652;SDS011;18261;53.648;9.910;2023-03-01T00:50:30;36.72;;;16.80;;
31652;SDS011;18261;53.648;9.910;2023-03-01T00:52:56;31.77;;;14.88;;
31652;SDS011;18261;53.648;9.910;2023-03-01T00:55:22;38.25;;;15.68;;
31652;SDS011;18261;53.648;9.910;2023-03-01T00:57:48;35.15;;;16.50;;
31652;SDS011;18261;53.648;9.910;2023-03-01T01:00:14;48.63;;;18.65;;
31652;SDS011;18261;53.648;9.910;2023-03-01T01:02:40;44.08;;;19.00;;
31652;SDS011;18261;53.648;9.910;2023-03-01T01:05:07;46.67;;;19.85;;
31652;SDS011;18261;53.648;9.910;2023-03-01T01:07:33;41.28;;;19.30;;
31652;SDS011;18261;53.648;9.910;2023-03-01T01:09:59;41.50;;;18.55;;
31652;SDS011;18261;53.648;9.910;2023-03-01T01:12:25;45.00;;;19.15;;
31652;SDS011;18261;53.648;9.910;2023-03-01T01:14:51;45.72;;;19.17;;
31652;SDS011;18261;53.648;9.910;2023-03-01T01:17:17;41.20;;;19.10;;
31652;SDS011;18261;53.648;9.910;2023-03-01T01:19:43;41.92;;;19.95;;
31652;SDS011;18261;53.648;9.910;2023-03-01T01:22:09;43.85;;;19.85;;
31652;SDS011;18261;53.648;9.910;2023-03-01T01:24:35;41.67;;;18.83;;
31652;SDS011;18261;53.648;9.910;2023-03-01T01:27:01;43.85;;;18.52;;
31652;SDS011;18261;53.648;9.910;2023-03-01T01:29:27;44.33;;;17.70;;
31652;SDS011;18261;53.648;9.910;2023-03-01T01:31:53;40.33;;;16.55;;
31652;SDS011;18261;53.648;9.910;2023-03-01T01:34:20;39.70;;;17.85;;
31652;SDS011;18261;53.648;9.910;2023-03-01T01:36:49;39.00;;;17.92;;
31652;SDS011;18261;53.648;9.910;2023-03-01T01:39:15;41.95;;;16.63;;
31652;SDS011;18261;53.648;9.910;2023-03-01T01:41:42;36.33;;;15.15;;
31652;SDS011;18261;53.648;9.910;2023-03-01T01:46:53;40.33;;;14.70;;
31652;SDS011;18261;53.648;9.910;2023-03-01T01:51:57;33.28;;;14.95;;
31652;SDS011;18261;53.648;9.910;2023-03-01T01:54:28;39.17;;;16.02;;
31652;SDS011;18261;53.648;9.910;2023-03-01T01:56:56;38.35;;;16.88;;
31652;SDS011;18261;53.648;9.910;2023-03-01T01:59:23;34.35;;;16.60;;
31652;SDS011;18261;53.648;9.910;2023-03-01T02:01:51;38.53;;;17.55;;
31652;SDS011;18261;53.648;9.910;2023-03-01T02:04:17;38.60;;;17.20;;
31652;SDS011;18261;53.648;9.910;2023-03-01T02:06:51;39.75;;;17.85;;
31652;SDS011;18261;53.648;9.910;2023-03-01T02:09:20;38.03;;;17.60;;
31652;SDS011;18261;53.648;9.910;2023-03-01T02:11:46;39.10;;;17.52;;
31652;SDS011;18261;53.648;9.910;2023-03-01T02:14:12;46.50;;;19.08;;
31652;SDS011;18261;53.648;9.910;2023-03-01T02:16:40;38.80;;;17.38;;
31652;SDS011;18261;53.648;9.910;2023-03-01T02:19:06;40.83;;;18.35;;
31652;SDS011;18261;53.648;9.910;2023-03-01T02:24:01;37.97;;;16.85;;
31652;SDS011;18261;53.648;9.910;2023-03-01T02:26:36;34.78;;;16.33;;
31652;SDS011;18261;53.648;9.910;2023-03-01T02:29:06;43.90;;;16.85;;
31652;SDS011;18261;53.648;9.910;2023-03-01T02:31:32;32.17;;;16.17;;
31652;SDS011;18261;53.648;9.910;2023-03-01T02:34:14;39.65;;;16.90;;
31652;SDS011;18261;53.648;9.910;2023-03-01T02:36:43;33.97;;;16.58;;
31652;SDS011;18261;53.648;9.910;2023-03-01T02:39:11;33.85;;;16.08;;
31652;SDS011;18261;53.648;9.910;2023-03-01T02:41:42;36.88;;;17.15;;
31652;SDS011;18261;53.648;9.910;2023-03-01T02:44:09;37.38;;;16.08;;
31652;SDS011;18261;53.648;9.910;2023-03-01T02:46:41;34.03;;;16.02;;
31652;SDS011;18261;53.648;9.910;2023-03-01T02:49:18;34.22;;;15.63;;
31652;SDS011;18261;53.648;9.910;2023-03-01T02:54:19;38.88;;;15.85;;
31652;SDS011;18261;53.648;9.910;2023-03-01T02:56:49;31.00;;;15.68;;
31652;SDS011;18261;53.648;9.910;2023-03-01T02:59:16;35.03;;;15.18;;
31652;SDS011;18261;53.648;9.910;2023-03-01T03:01:43;33.40;;;14.85;;
31652;SDS011;18261;53.648;9.910;2023-03-01T03:04:10;35.08;;;15.43;;
31652;SDS011;18261;53.648;9.910;2023-03-01T03:06:37;39.45;;;16.45;;
31652;SDS011;18261;53.648;9.910;2023-03-01T03:09:03;34.63;;;15.48;;
31652;SDS011;18261;53.648;9.910;2023-03-01T03:11:30;38.88;;;16.92;;
31652;SDS011;18261;53.648;9.910;2023-03-01T03:13:57;35.42;;;15.38;;
31652;SDS011;18261;53.648;9.910;2023-03-01T03:16:23;34.05;;;15.60;;
31652;SDS011;18261;53.648;9.910;2023-03-01T03:18:49;35.47;;;15.25;;
31652;SDS011;18261;53.648;9.910;2023-03-01T03:21:16;32.28;;;14.95;;
31652;SDS011;18261;53.648;9.910;2023-03-01T03:23:42;33.53;;;14.55;;
31652;SDS011;18261;53.648;9.910;2023-03-01T03:26:08;30.80;;;15.18;;
31652;SDS011;18261;53.648;9.910;2023-03-01T03:28:40;29.63;;;13.32;;
31652;SDS011;18261;53.648;9.910;2023-03-01T03:31:06;31.20;;;13.85;;
31652;SDS011;18261;53.648;9.910;2023-03-01T03:33:32;29.13;;;13.18;;
31652;SDS011;18261;53.648;9.910;2023-03-01T03:35:58;33.42;;;16.30;;
31652;SDS011;18261;53.648;9.910;2023-03-01T03:38:24;29.77;;;14.80;;
31652;SDS011;18261;53.648;9.910;2023-03-01T03:40:51;34.38;;;16.08;;
31652;SDS011;18261;53.648;9.910;2023-03-01T03:43:22;30.60;;;14.77;;
31652;SDS011;18261;53.648;9.910;2023-03-01T03:45:49;43.80;;;17.40;;
31652;SDS011;18261;53.648;9.910;2023-03-01T03:48:15;35.05;;;16.73;;
31652;SDS011;18261;53.648;9.910;2023-03-01T03:50:54;36.72;;;16.45;;
31652;SDS011;18261;53.648;9.910;2023-03-01T03:53:21;34.13;;;15.77;;
31652;SDS011;18261;53.648;9.910;2023-03-01T03:55:48;42.67;;;17.38;;
31652;SDS011;18261;53.648;9.910;2023-03-01T03:58:14;37.25;;;17.50;;
31652;SDS011;18261;53.648;9.910;2023-03-01T04:00:42;32.47;;;16.23;;
31652;SDS011;18261;53.648;9.910;2023-03-01T04:03:08;34.83;;;16.17;;
31652;SDS011;18261;53.648;9.910;2023-03-01T04:05:35;41.15;;;19.48;;
31652;SDS011;18261;53.648;9.910;2023-03-01T04:08:01;41.30;;;18.88;;
31652;SDS011;18261;53.648;9.910;2023-03-01T04:10:28;39.88;;;17.92;;
31652;SDS011;18261;53.648;9.910;2023-03-01T04:12:54;36.13;;;17.48;;
31652;SDS011;18261;53.648;9.910;2023-03-01T04:15:24;33.03;;;15.52;;
31652;SDS011;18261;53.648;9.910;2023-03-01T04:17:51;39.42;;;16.15;;
31652;SDS011;18261;53.648;9.910;2023-03-01T04:20:18;32.00;;;16.17;;
31652;SDS011;18261;53.648;9.910;2023-03-01T04:23:12;33.83;;;16.98;;
31652;SDS011;18261;53.648;9.910;2023-03-01T04:25:53;28.98;;;14.95;;
31652;SDS011;18261;53.648;9.910;2023-03-01T04:28:24;30.20;;;15.18;;
31652;SDS011;18261;53.648;9.910;2023-03-01T04:30:51;30.50;;;14.05;;
31652;SDS011;18261;53.648;9.910;2023-03-01T04:33:18;33.33;;;14.70;;
31652;SDS011;18261;53.648;9.910;2023-03-01T04:35:44;32.30;;;15.40;;
31652;SDS011;18261;53.648;9.910;2023-03-01T04:38:10;28.08;;;13.38;;
31652;SDS011;18261;53.648;9.910;2023-03-01T04:40:36;30.52;;;14.25;;
31652;SDS011;18261;53.648;9.910;2023-03-01T04:43:03;31.88;;;14.52;;
31652;SDS011;18261;53.648;9.910;2023-03-01T04:45:29;30.15;;;13.98;;
31652;SDS011;18261;53.648;9.910;2023-03-01T04:47:57;25.92;;;12.48;;
31652;SDS011;18261;53.648;9.910;2023-03-01T04:50:23;23.80;;;13.60;;
31652;SDS011;18261;53.648;9.910;2023-03-01T04:52:50;26.92;;;13.50;;
31652;SDS011;18261;53.648;9.910;2023-03-01T04:55:17;31.25;;;14.25;;
31652;SDS011;18261;53.648;9.910;2023-03-01T04:57:43;27.27;;;12.77;;
31652;SDS011;18261;53.648;9.910;2023-03-01T05:00:12;29.10;;;13.40;;
31652;SDS011;18261;53.648;9.910;2023-03-01T05:02:58;27.40;;;14.00;;
31652;SDS011;18261;53.648;9.910;2023-03-01T05:07:54;26.17;;;13.13;;
31652;SDS011;18261;53.648;9.910;2023-03-01T05:10:21;29.35;;;13.77;;
31652;SDS011;18261;53.648;9.910;2023-03-01T05:12:47;29.52;;;13.60;;
31652;SDS011;18261;53.648;9.910;2023-03-01T05:15:13;27.90;;;13.50;;
31652;SDS011;18261;53.648;9.910;2023-03-01T05:17:39;39.50;;;20.13;;
31652;SDS011;18261;53.648;9.910;2023-03-01T05:20:06;28.35;;;13.63;;
31652;SDS011;18261;53.648;9.910;2023-03-01T05:22:33;37.70;;;13.70;;
31652;SDS011;18261;53.648;9.910;2023-03-01T05:25:00;29.15;;;12.90;;
31652;SDS011;18261;53.648;9.910;2023-03-01T05:27:26;26.38;;;11.73;;
31652;SDS011;18261;53.648;9.910;2023-03-01T05:29:52;24.77;;;12.10;;
31652;SDS011;18261;53.648;9.910;2023-03-01T05:32:18;33.67;;;13.30;;
31652;SDS011;18261;53.648;9.910;2023-03-01T05:34:44;21.33;;;10.25;;
31652;SDS011;18261;53.648;9.910;2023-03-01T05:37:11;24.27;;;10.48;;
31652;SDS011;18261;53.648;9.910;2023-03-01T05:39:39;26.45;;;11.43;;
31652;SDS011;18261;53.648;9.910;2023-03-01T05:42:09;29.13;;;10.90;;
31652;SDS011;18261;53.648;9.910;2023-03-01T05:44:36;25.85;;;12.05;;
31652;SDS011;18261;53.648;9.910;2023-03-01T05:47:02;27.40;;;12.48;;
31652;SDS011;18261;53.648;9.910;2023-03-01T05:49:28;23.92;;;12.38;;
31652;SDS011;18261;53.648;9.910;2023-03-01T05:51:55;19.40;;;9.75;;
31652;SDS011;18261;53.648;9.910;2023-03-01T05:54:21;20.20;;;10.63;;
31652;SDS011;18261;53.648;9.910;2023-03-01T05:56:47;21.35;;;11.10;;
31652;SDS011;18261;53.648;9.910;2023-03-01T05:59:14;21.17;;;10.02;;
31652;SDS011;18261;53.648;9.910;2023-03-01T06:01:41;18.80;;;9.80;;
31652;SDS011;18261;53.648;9.910;2023-03-01T06:04:07;26.05;;;12.68;;
31652;SDS011;18261;53.648;9.910;2023-03-01T06:06:33;23.90;;;11.50;;
31652;SDS011;18261;53.648;9.910;2023-03-01T06:09:02;21.90;;;11.10;;
31652;SDS011;18261;53.648;9.910;2023-03-01T06:11:28;22.88;;;11.00;;
31652;SDS011;18261;53.648;9.910;2023-03-01T06:13:54;20.00;;;10.43;;
31652;SDS011;18261;53.648;9.910;2023-03-01T06:16:20;22.25;;;9.65;;
31652;SDS011;18261;53.648;9.910;2023-03-01T06:18:46;22.83;;;10.57;;
31652;SDS011;18261;53.648;9.910;2023-03-01T06:21:12;21.63;;;10.15;;
31652;SDS011;18261;53.648;9.910;2023-03-01T06:23:38;29.67;;;12.93;;
31652;SDS011;18261;53.648;9.910;2023-03-01T06:26:05;25.30;;;12.23;;
31652;SDS011;18261;53.648;9.910;2023-03-01T06:28:31;31.30;;;14.48;;
31652;SDS011;18261;53.648;9.910;2023-03-01T06:30:57;26.00;;;11.88;;
31652;SDS011;18261;53.648;9.910;2023-03-01T06:33:23;24.35;;;11.40;;
31652;SDS011;18261;53.648;9.910;2023-03-01T06:35:49;21.65;;;10.27;;
31652;SDS011;18261;53.648;9.910;2023-03-01T06:38:15;24.55;;;10.48;;
31652;SDS011;18261;53.648;9.910;2023-03-01T06:40:43;23.75;;;11.85;;
31652;SDS011;18261;53.648;9.910;2023-03-01T06:43:09;20.98;;;9.82;;
31652;SDS011;18261;53.648;9.910;2023-03-01T06:45:36;22.33;;;10.18;;
31652;SDS011;18261;53.648;9.910;2023-03-01T06:48:03;21.92;;;10.10;;
31652;SDS011;18261;53.648;9.910;2023-03-01T06:50:29;23.98;;;11.55;;
31652;SDS011;18261;53.648;9.910;2023-03-01T06:52:55;20.52;;;10.52;;
31652;SDS011;18261;53.648;9.910;2023-03-01T06:55:21;33.38;;;11.43;;
31652;SDS011;18261;53.648;9.910;2023-03-01T06:57:47;21.00;;;10.55;;
31652;SDS011;18261;53.648;9.910;2023-03-01T07:00:13;29.65;;;11.07;;
31652;SDS011;18261;53.648;9.910;2023-03-01T07:02:40;19.63;;;10.50;;
31652;SDS011;18261;53.648;9.910;2023-03-01T07:05:06;24.73;;;11.45;;
31652;SDS011;18261;53.648;9.910;2023-03-01T07:07:32;29.13;;;11.63;;
31652;SDS011;18261;53.648;9.910;2023-03-01T07:09:58;22.35;;;11.05;;
31652;SDS011;18261;53.648;9.910;2023-03-01T07:12:24;29.92;;;13.13;;
31652;SDS011;18261;53.648;9.910;2023-03-01T07:14:50;23.52;;;11.32;;
31652;SDS011;18261;53.648;9.910;2023-03-01T07:17:16;24.48;;;10.95;;
31652;SDS011;18261;53.648;9.910;2023-03-01T07:19:42;20.92;;;10.27;;
31652;SDS011;18261;53.648;9.910;2023-03-01T07:22:08;20.67;;;10.30;;
31652;SDS011;18261;53.648;9.910;2023-03-01T07:24:34;20.40;;;9.95;;
31652;SDS011;18261;53.648;9.910;2023-03-01T07:27:00;22.60;;;10.35;;
31652;SDS011;18261;53.648;9.910;2023-03-01T07:29:26;17.80;;;9.63;;
31652;SDS011;18261;53.648;9.910;2023-03-01T07:31:53;20.98;;;9.70;;
31652;SDS011;18261;53.648;9.910;2023-03-01T07:34:20;21.95;;;9.70;;
31652;SDS011;18261;53.648;9.910;2023-03-01T07:36:46;24.98;;;10.80;;
31652;SDS011;18261;53.648;9.910;2023-03-01T07:39:12;19.17;;;10.25;;
31652;SDS011;18261;53.648;9.910;2023-03-01T07:41:38;21.05;;;11.20;;
31652;SDS011;18261;53.648;9.910;2023-03-01T07:44:04;21.83;;;10.50;;
31652;SDS011;18261;53.648;9.910;2023-03-01T07:46:31;22.90;;;10.65;;
31652;SDS011;18261;53.648;9.910;2023-03-01T07:48:57;20.33;;;10.43;;
31652;SDS011;18261;53.648;9.910;2023-03-01T07:51:23;19.42;;;9.70;;
31652;SDS011;18261;53.648;9.910;2023-03-01T07:53:49;20.90;;;11.18;;
31652;SDS011;18261;53.648;9.910;2023-03-01T07:56:15;20.27;;;10.70;;
31652;SDS011;18261;53.648;9.910;2023-03-01T07:58:43;24.50;;;11.55;;
31652;SDS011;18261;53.648;9.910;2023-03-01T08:01:13;24.08;;;12.25;;
31652;SDS011;18261;53.648;9.910;2023-03-01T08:03:39;26.27;;;11.75;;
31652;SDS011;18261;53.648;9.910;2023-03-01T08:06:07;29.75;;;13.10;;
31652;SDS011;18261;53.648;9.910;2023-03-01T08:08:34;24.38;;;12.60;;
31652;SDS011;18261;53.648;9.910;2023-03-01T08:11:00;23.70;;;12.43;;
31652;SDS011;18261;53.648;9.910;2023-03-01T08:13:27;26.05;;;12.82;;
31652;SDS011;18261;53.648;9.910;2023-03-01T08:15:53;21.73;;;12.25;;
31652;SDS011;18261;53.648;9.910;2023-03-01T08:18:20;34.63;;;13.05;;
31652;SDS011;18261;53.648;9.910;2023-03-01T08:20:46;30.08;;;14.60;;
31652;SDS011;18261;53.648;9.910;2023-03-01T08:23:12;20.27;;;11.60;;
31652;SDS011;18261;53.648;9.910;2023-03-01T08:25:38;27.70;;;12.27;;
31652;SDS011;18261;53.648;9.910;2023-03-01T08:28:05;29.55;;;14.52;;
31652;SDS011;18261;53.648;9.910;2023-03-01T08:30:31;27.08;;;13.80;;
31652;SDS011;18261;53.648;9.910;2023-03-01T08:32:57;26.60;;;13.90;;
31652;SDS011;18261;53.648;9.910;2023-03-01T08:35:23;30.05;;;14.60;;
31652;SDS011;18261;53.648;9.910;2023-03-01T08:37:49;27.05;;;15.23;;
31652;SDS011;18261;53.648;9.910;2023-03-01T08:40:15;24.60;;;13.98;;
31652;SDS011;18261;53.648;9.910;2023-03-01T08:42:41;25.00;;;13.95;;
31652;SDS011;18261;53.648;9.910;2023-03-01T08:45:10;31.23;;;14.73;;
31652;SDS011;18261;53.648;9.910;2023-03-01T08:47:38;30.70;;;15.23;;
31652;SDS011;18261;53.648;9.910;2023-03-01T08:50:04;29.08;;;15.70;;
31652;SDS011;18261;53.648;9.910;2023-03-01T08:52:31;28.73;;;16.38;;
31652;SDS011;18261;53.648;9.910;2023-03-01T08:54:57;36.30;;;18.30;;
31652;SDS011;18261;53.648;9.910;2023-03-01T08:57:26;34.97;;;18.77;;
31652;SDS011;18261;53.648;9.910;2023-03-01T08:59:52;39.38;;;20.23;;
31652;SDS011;18261;53.648;9.910;2023-03-01T09:02:20;43.58;;;22.33;;
31652;SDS011;18261;53.648;9.910;2023-03-01T09:04:46;43.60;;;21.85;;
31652;SDS011;18261;53.648;9.910;2023-03-01T09:07:12;46.58;;;23.30;;
31652;SDS011;18261;53.648;9.910;2023-03-01T09:09:38;45.97;;;23.10;;
31652;SDS011;18261;53.648;9.910;2023-03-01T09:12:04;43.42;;;22.10;;
31652;SDS011;18261;53.648;9.910;2023-03-01T09:14:30;43.63;;;21.55;;
31652;SDS011;18261;53.648;9.910;2023-03-01T09:16:56;39.25;;;20.35;;
31652;SDS011;18261;53.648;9.910;2023-03-01T09:19:23;42.58;;;21.65;;
31652;SDS011;18261;53.648;9.910;2023-03-01T09:21:49;40.85;;;20.60;;
31652;SDS011;18261;53.648;9.910;2023-03-01T09:24:19;36.00;;;19.17;;
31652;SDS011;18261;53.648;9.910;2023-03-01T09:26:46;40.15;;;18.50;;
31652;SDS011;18261;53.648;9.910;2023-03-01T09:29:12;33.90;;;17.52;;
31652;SDS011;18261;53.648;9.910;2023-03-01T09:31:39;29.80;;;16.35;;
31652;SDS011;18261;53.648;9.910;2023-03-01T09:34:05;33.92;;;16.13;;
31652;SDS011;18261;53.648;9.910;2023-03-01T09:36:31;31.50;;;16.98;;
31652;SDS011;18261;53.648;9.910;2023-03-01T09:38:58;32.15;;;16.85;;
31652;SDS011;18261;53.648;9.910;2023-03-01T09:46:48;30.40;;;15.95;;
31652;SDS011;18261;53.648;9.910;2023-03-01T09:49:19;32.35;;;16.15;;
31652;SDS011;18261;53.648;9.910;2023-03-01T09:51:56;31.33;;;15.73;;
31652;SDS011;18261;53.648;9.910;2023-03-01T09:54:23;28.98;;;16.20;;
31652;SDS011;18261;53.648;9.910;2023-03-01T10:04:55;26.73;;;15.35;;
31652;SDS011;18261;53.648;9.910;2023-03-01T10:10:07;24.27;;;14.70;;
31652;SDS011;18261;53.648;9.910;2023-03-01T10:12:37;24.88;;;14.85;;
31652;SDS011;18261;53.648;9.910;2023-03-01T10:17:39;24.17;;;14.15;;
31652;SDS011;18261;53.648;9.910;2023-03-01T10:20:14;22.88;;;13.05;;
31652;SDS011;18261;53.648;9.910;2023-03-01T10:22:41;25.23;;;13.98;;
31652;SDS011;18261;53.648;9.910;2023-03-01T10:25:08;22.05;;;12.43;;
31652;SDS011;18261;53.648;9.910;2023-03-01T10:32:33;22.30;;;13.25;;
31652;SDS011;18261;53.648;9.910;2023-03-01T10:34:59;24.23;;;13.25;;
31652;SDS011;18261;53.648;9.910;2023-03-01T10:37:25;21.15;;;12.32;;
31652;SDS011;18261;53.648;9.910;2023-03-01T10:40:00;21.33;;;11.98;;
31652;SDS011;18261;53.648;9.910;2023-03-01T10:42:33;20.35;;;12.15;;
31652;SDS011;18261;53.648;9.910;2023-03-01T10:45:16;18.27;;;11.27;;
31652;SDS011;18261;53.648;9.910;2023-03-01T10:47:42;24.08;;;12.95;;
31652;SDS011;18261;53.648;9.910;2023-03-01T10:50:19;19.30;;;11.45;;
31652;SDS011;18261;53.648;9.910;2023-03-01T10:52:55;18.08;;;10.60;;
31652;SDS011;18261;53.648;9.910;2023-03-01T10:55:38;20.52;;;11.15;;
31652;SDS011;18261;53.648;9.910;2023-03-01T11:00:45;15.63;;;9.13;;
31652;SDS011;18261;53.648;9.910;2023-03-01T11:03:13;17.63;;;8.93;;
31652;SDS011;18261;53.648;9.910;2023-03-01T11:05:53;25.75;;;12.35;;
31652;SDS011;18261;53.648;9.910;2023-03-01T11:11:12;15.25;;;9.30;;
31652;SDS011;18261;53.648;9.910;2023-03-01T11:13:46;14.35;;;8.38;;
31652;SDS011;18261;53.648;9.910;2023-03-01T11:18:39;12.23;;;7.93;;
31652;SDS011;18261;53.648;9.910;2023-03-01T11:21:05;17.20;;;8.63;;
31652;SDS011;18261;53.648;9.910;2023-03-01T11:23:33;12.88;;;7.80;;
31652;SDS011;18261;53.648;9.910;2023-03-01T11:26:01;10.35;;;7.13;;
31652;SDS011;18261;53.648;9.910;2023-03-01T11:28:28;13.05;;;7.30;;
31652;SDS011;18261;53.648;9.910;2023-03-01T11:31:08;13.40;;;8.48;;
31652;SDS011;18261;53.648;9.910;2023-03-01T11:33:56;13.40;;;8.48;;
31652;SDS011;18261;53.648;9.910;2023-03-01T11:36:39;11.27;;;7.43;;
31652;SDS011;18261;53.648;9.910;2023-03-01T11:39:25;14.10;;;8.18;;
31652;SDS011;18261;53.648;9.910;2023-03-01T11:41:57;14.00;;;8.63;;
31652;SDS011;18261;53.648;9.910;2023-03-01T11:44:26;12.00;;;7.35;;
31652;SDS011;18261;53.648;9.910;2023-03-01T11:47:00;11.90;;;7.68;;
31652;SDS011;18261;53.648;9.910;2023-03-01T11:52:18;10.60;;;8.38;;
31652;SDS011;18261;53.648;9.910;2023-03-01T11:54:57;11.85;;;8.13;;
31652;SDS011;18261;53.648;9.910;2023-03-01T12:00:07;16.30;;;8.50;;
31652;SDS011;18261;53.648;9.910;2023-03-01T12:02:47;14.27;;;7.60;;
31652;SDS011;18261;53.648;9.910;2023-03-01T12:05:51;10.18;;;7.63;;
31652;SDS011;18261;53.648;9.910;2023-03-01T12:08:12;12.00;;;8.65;;
31652;SDS011;18261;53.648;9.910;2023-03-01T12:15:44;10.98;;;8.55;;
31652;SDS011;18261;53.648;9.910;2023-03-01T12:26:29;10.93;;;7.97;;
31652;SDS011;18261;53.648;9.910;2023-03-01T12:31:40;15.18;;;8.50;;
31652;SDS011;18261;53.648;9.910;2023-03-01T12:37:24;11.23;;;7.28;;
31652;SDS011;18261;53.648;9.910;2023-03-01T12:40:04;9.88;;;6.53;;
31652;SDS011;18261;53.648;9.910;2023-03-01T12:48:08;13.50;;;8.05;;
31652;SDS011;18261;53.648;9.910;2023-03-01T12:50:52;11.07;;;7.95;;
31652;SDS011;18261;53.648;9.910;2023-03-01T12:53:26;10.10;;;7.75;;
31652;SDS011;18261;53.648;9.910;2023-03-01T12:55:53;12.48;;;8.80;;
31652;SDS011;18261;53.648;9.910;2023-03-01T12:58:35;8.32;;;6.55;;
31652;SDS011;18261;53.648;9.910;2023-03-01T13:09:24;10.38;;;6.90;;
31652;SDS011;18261;53.648;9.910;2023-03-01T13:12:01;10.73;;;6.40;;
31652;SDS011;18261;53.648;9.910;2023-03-01T13:16:56;9.20;;;6.50;;
31652;SDS011;18261;53.648;9.910;2023-03-01T13:19:23;10.82;;;6.90;;
31652;SDS011;18261;53.648;9.910;2023-03-01T13:21:51;10.68;;;7.38;;
31652;SDS011;18261;53.648;9.910;2023-03-01T13:29:51;8.93;;;6.32;;
31652;SDS011;18261;53.648;9.910;2023-03-01T13:34:51;9.77;;;5.88;;
31652;SDS011;18261;53.648;9.910;2023-03-01T13:37:25;7.95;;;5.25;;
31652;SDS011;18261;53.648;9.910;2023-03-01T13:39:55;6.32;;;5.03;;
31652;SDS011;18261;53.648;9.910;2023-03-01T13:44:54;6.85;;;4.70;;
31652;SDS011;18261;53.648;9.910;2023-03-01T13:47:20;7.93;;;5.80;;
31652;SDS011;18261;53.648;9.910;2023-03-01T13:49:51;7.70;;;5.32;;
31652;SDS011;18261;53.648;9.910;2023-03-01T13:52:37;12.40;;;5.60;;
31652;SDS011;18261;53.648;9.910;2023-03-01T13:55:25;8.48;;;5.28;;
31652;SDS011;18261;53.648;9.910;2023-03-01T13:58:01;7.80;;;5.40;;
31652;SDS011;18261;53.648;9.910;2023-03-01T14:00:38;8.10;;;6.38;;
31652;SDS011;18261;53.648;9.910;2023-03-01T14:03:15;12.00;;;7.72;;
31652;SDS011;18261;53.648;9.910;2023-03-01T14:05:43;10.65;;;5.93;;
31652;SDS011;18261;53.648;9.910;2023-03-01T14:08:31;11.80;;;6.15;;
31652;SDS011;18261;53.648;9.910;2023-03-01T14:21:38;8.23;;;5.95;;
31652;SDS011;18261;53.648;9.910;2023-03-01T14:24:03;7.57;;;5.82;;
31652;SDS011;18261;53.648;9.910;2023-03-01T14:26:29;11.65;;;6.93;;
31652;SDS011;18261;53.648;9.910;2023-03-01T14:28:58;11.15;;;6.75;;
31652;SDS011;18261;53.648;9.910;2023-03-01T14:34:03;9.00;;;7.05;;
31652;SDS011;18261;53.648;9.910;2023-03-01T14:36:30;8.77;;;6.90;;
31652;SDS011;18261;53.648;9.910;2023-03-01T14:38:57;9.98;;;7.38;;
31652;SDS011;18261;53.648;9.910;2023-03-01T14:41:29;11.35;;;7.97;;
31652;SDS011;18261;53.648;9.910;2023-03-01T14:43:59;14.30;;;8.23;;
31652;SDS011;18261;53.648;9.910;2023-03-01T14:46:33;12.50;;;8.27;;
31652;SDS011;18261;53.648;9.910;2023-03-01T14:49:05;15.30;;;8.10;;
31652;SDS011;18261;53.648;9.910;2023-03-01T14:51:37;12.13;;;8.52;;
31652;SDS011;18261;53.648;9.910;2023-03-01T14:54:05;10.75;;;7.65;;
31652;SDS011;18261;53.648;9.910;2023-03-01T14:56:46;14.32;;;8.38;;
31652;SDS011;18261;53.648;9.910;2023-03-01T14:59:12;16.45;;;10.00;;
31652;SDS011;18261;53.648;9.910;2023-03-01T15:01:39;15.05;;;9.57;;
31652;SDS011;18261;53.648;9.910;2023-03-01T15:04:06;16.42;;;9.77;;
31652;SDS011;18261;53.648;9.910;2023-03-01T15:06:36;13.40;;;9.95;;
31652;SDS011;18261;53.648;9.910;2023-03-01T15:09:03;18.42;;;11.07;;
31652;SDS011;18261;53.648;9.910;2023-03-01T15:11:33;16.52;;;11.25;;
31652;SDS011;18261;53.648;9.910;2023-03-01T15:14:00;21.00;;;10.57;;
31652;SDS011;18261;53.648;9.910;2023-03-01T15:16:27;16.95;;;10.38;;
31652;SDS011;18261;53.648;9.910;2023-03-01T15:18:56;16.33;;;10.75;;
31652;SDS011;18261;53.648;9.910;2023-03-01T15:21:25;16.48;;;11.07;;
31652;SDS011;18261;53.648;9.910;2023-03-01T15:23:58;18.25;;;11.43;;
31652;SDS011;18261;53.648;9.910;2023-03-01T15:26:45;23.38;;;14.57;;
31652;SDS011;18261;53.648;9.910;2023-03-01T15:29:19;19.15;;;12.63;;
31652;SDS011;18261;53.648;9.910;2023-03-01T15:34:49;16.75;;;11.15;;
31652;SDS011;18261;53.648;9.910;2023-03-01T15:39:59;19.33;;;12.23;;
31652;SDS011;18261;53.648;9.910;2023-03-01T15:47:48;16.20;;;10.82;;
31652;SDS011;18261;53.648;9.910;2023-03-01T15:50:20;16.23;;;11.10;;
31652;SDS011;18261;53.648;9.910;2023-03-01T15:52:53;25.65;;;13.23;;
31652;SDS011;18261;53.648;9.910;2023-03-01T15:55:27;17.85;;;11.30;;
31652;SDS011;18261;53.648;9.910;2023-03-01T15:57:59;19.10;;;11.30;;
31652;SDS011;18261;53.648;9.910;2023-03-01T16:00:26;18.33;;;10.23;;
31652;SDS011;18261;53.648;9.910;2023-03-01T16:02:52;15.85;;;10.20;;
31652;SDS011;18261;53.648;9.910;2023-03-01T16:05:22;24.08;;;14.52;;
31652;SDS011;18261;53.648;9.910;2023-03-01T16:07:52;21.48;;;13.65;;
31652;SDS011;18261;53.648;9.910;2023-03-01T16:10:18;24.75;;;15.68;;
31652;SDS011;18261;53.648;9.910;2023-03-01T16:12:45;19.15;;;12.38;;
31652;SDS011;18261;53.648;9.910;2023-03-01T16:15:31;11.50;;;8.45;;
31652;SDS011;18261;53.648;9.910;2023-03-01T16:18:01;15.77;;;9.15;;
31652;SDS011;18261;53.648;9.910;2023-03-01T16:20:28;15.13;;;8.30;;
31652;SDS011;18261;53.648;9.910;2023-03-01T16:22:54;13.00;;;8.55;;
31652;SDS011;18261;53.648;9.910;2023-03-01T16:25:22;13.50;;;8.55;;
31652;SDS011;18261;53.648;9.910;2023-03-01T16:27:49;14.80;;;8.80;;
31652;SDS011;18261;53.648;9.910;2023-03-01T16:30:16;12.95;;;8.68;;
31652;SDS011;18261;53.648;9.910;2023-03-01T16:32:43;17.02;;;9.85;;
31652;SDS011;18261;53.648;9.910;2023-03-01T16:35:10;17.90;;;10.48;;